sensor_id;sensor_type;location;lat;lon;timestamp;P1;durP1;ratioP1;P2;durP2;ratioP2
24421;SDS011;12600;53.326;-6.298;2024-02-23T00:01:16;4.93;;;1.60;;
24421;SDS011;12600;53.326;-6.298;2024-02-23T00:04:07;3.50;;;1.17;;
24421;SDS011;12600;53.326;-6.298;2024-02-23T00:06:56;1.77;;;0.90;;
24421;SDS011;12600;53.326;-6.298;2024-02-23T00:09:46;5.47;;;1.70;;
24421;SDS011;12600;53.326;-6.298;2024-02-23T00:12:36;1.60;;;0.80;;
24421;SDS011;12600;53.326;-6.298;2024-02-23T00:15:25;2.53;;;0.98;;
24421;SDS011;12600;53.326;-6.298;2024-02-23T00:18:15;3.03;;;1.30;;
24421;SDS011;12600;53.326;-6.298;2024-02-23T00:21:06;2.80;;;1.10;;
24421;SDS011;12600;53.326;-6.298;2024-02-23T00:23:55;6.35;;;1.70;;
24421;SDS011;12600;53.326;-6.298;2024-02-23T00:26:45;2.53;;;1.05;;
24421;SDS011;12600;53.326;-6.298;2024-02-23T00:29:34;6.70;;;1.33;;
24421;SDS011;12600;53.326;-6.298;2024-02-23T00:32:24;4.55;;;1.30;;
24421;SDS011;12600;53.326;-6.298;2024-02-23T00:35:13;6.32;;;1.52;;
24421;SDS011;12600;53.326;-6.298;2024-02-23T00:38:04;4.47;;;1.77;;
24421;SDS011;12600;53.326;-6.298;2024-02-23T00:40:55;1.95;;;0.90;;
24421;SDS011;12600;53.326;-6.298;2024-02-23T00:43:44;3.65;;;1.40;;
24421;SDS011;12600;53.326;-6.298;2024-02-23T00:46:35;3.05;;;1.10;;
24421;SDS011;12600;53.326;-6.298;2024-02-23T00:49:24;6.78;;;1.70;;
24421;SDS011;12600;53.326;-6.298;2024-02-23T00:52:13;5.97;;;1.02;;
24421;SDS011;12600;53.326;-6.298;2024-02-23T00:55:05;5.93;;;1.23;;
24421;SDS011;12600;53.326;-6.298;2024-02-23T00:57:56;4.35;;;1.50;;
24421;SDS011;12600;53.326;-6.298;2024-02-23T01:00:46;4.07;;;1.25;;
24421;SDS011;12600;53.326;-6.298;2024-02-23T01:03:36;3.25;;;1.05;;
24421;SDS011;12600;53.326;-6.298;2024-02-23T01:06:25;5.13;;;1.35;;
24421;SDS011;12600;53.326;-6.298;2024-02-23T01:09:16;3.38;;;0.80;;
24421;SDS011;12600;53.326;-6.298;2024-02-23T01:12:09;3.30;;;1.25;;
24421;SDS011;12600;53.326;-6.298;2024-02-23T01:14:59;7.07;;;1.70;;
24421;SDS011;12600;53.326;-6.298;2024-02-23T01:17:52;5.68;;;1.70;;
24421;SDS011;12600;53.326;-6.298;2024-02-23T01:20:43;5.10;;;1.95;;
24421;SDS011;12600;53.326;-6.298;2024-02-23T01:23:32;8.95;;;1.80;;
24421;SDS011;12600;53.326;-6.298;2024-02-23T01:26:22;6.03;;;1.92;;
24421;SDS011;12600;53.326;-6.298;2024-02-23T01:29:13;8.57;;;1.80;;
24421;SDS011;12600;53.326;-6.298;2024-02-23T01:32:05;4.70;;;1.58;;
24421;SDS011;12600;53.326;-6.298;2024-02-23T01:34:54;6.07;;;1.55;;
24421;SDS011;12600;53.326;-6.298;2024-02-23T01:37:44;3.20;;;1.10;;
24421;SDS011;12600;53.326;-6.298;2024-02-23T01:40:33;5.80;;;1.60;;
24421;SDS011;12600;53.326;-6.298;2024-02-23T01:43:23;2.40;;;1.02;;
24421;SDS011;12600;53.326;-6.298;2024-02-23T01:46:14;2.13;;;0.82;;
24421;SDS011;12600;53.326;-6.298;2024-02-23T01:49:05;6.78;;;1.60;;
24421;SDS011;12600;53.326;-6.298;2024-02-23T01:51:56;3.50;;;1.10;;
24421;SDS011;12600;53.326;-6.298;2024-02-23T01:54:46;2.72;;;0.93;;
24421;SDS011;12600;53.326;-6.298;2024-02-23T01:57:35;7.47;;;1.60;;
24421;SDS011;12600;53.326;-6.298;2024-02-23T02:00:36;6.40;;;1.88;;
24421;SDS011;12600;53.326;-6.298;2024-02-23T02:03:27;4.22;;;1.00;;
24421;SDS011;12600;53.326;-6.298;2024-02-23T02:06:17;5.93;;;1.33;;
24421;SDS011;12600;53.326;-6.298;2024-02-23T02:09:07;5.38;;;1.10;;
24421;SDS011;12600;53.326;-6.298;2024-02-23T02:11:57;9.05;;;1.77;;
24421;SDS011;12600;53.326;-6.298;2024-02-23T02:14:46;6.03;;;1.13;;
24421;SDS011;12600;53.326;-6.298;2024-02-23T02:17:36;1.63;;;1.20;;
24421;SDS011;12600;53.326;-6.298;2024-02-23T02:20:27;5.65;;;1.15;;
24421;SDS011;12600;53.326;-6.298;2024-02-23T02:23:20;5.22;;;1.33;;
24421;SDS011;12600;53.326;-6.298;2024-02-23T02:26:10;5.78;;;1.10;;
24421;SDS011;12600;53.326;-6.298;2024-02-23T02:29:01;1.58;;;0.93;;
24421;SDS011;12600;53.326;-6.298;2024-02-23T02:31:51;4.53;;;1.27;;
24421;SDS011;12600;53.326;-6.298;2024-02-23T02:34:40;4.63;;;1.10;;
24421;SDS011;12600;53.326;-6.298;2024-02-23T02:37:31;4.80;;;0.70;;
24421;SDS011;12600;53.326;-6.298;2024-02-23T02:40:20;4.10;;;1.10;;
24421;SDS011;12600;53.326;-6.298;2024-02-23T02:43:10;2.13;;;1.00;;
24421;SDS011;12600;53.326;-6.298;2024-02-23T02:46:00;3.53;;;1.00;;
24421;SDS011;12600;53.326;-6.298;2024-02-23T02:48:49;4.80;;;1.10;;
24421;SDS011;12600;53.326;-6.298;2024-02-23T02:51:39;1.50;;;0.60;;
24421;SDS011;12600;53.326;-6.298;2024-02-23T02:54:30;3.30;;;1.00;;
24421;SDS011;12600;53.326;-6.298;2024-02-23T02:57:19;0.95;;;0.57;;
24421;SDS011;12600;53.326;-6.298;2024-02-23T03:00:09;3.05;;;0.70;;
24421;SDS011;12600;53.326;-6.298;2024-02-23T03:03:00;2.63;;;0.80;;
24421;SDS011;12600;53.326;-6.298;2024-02-23T03:05:49;2.97;;;0.82;;
24421;SDS011;12600;53.326;-6.298;2024-02-23T03:08:41;4.53;;;1.10;;
24421;SDS011;12600;53.326;-6.298;2024-02-23T03:11:32;3.78;;;0.88;;
24421;SDS011;12600;53.326;-6.298;2024-02-23T03:14:22;3.67;;;0.75;;
24421;SDS011;12600;53.326;-6.298;2024-02-23T03:17:11;1.15;;;0.60;;
24421;SDS011;12600;53.326;-6.298;2024-02-23T03:20:01;4.10;;;0.70;;
24421;SDS011;12600;53.326;-6.298;2024-02-23T03:22:56;1.13;;;0.50;;
24421;SDS011;12600;53.326;-6.298;2024-02-23T03:25:45;2.15;;;0.65;;
24421;SDS011;12600;53.326;-6.298;2024-02-23T03:28:36;0.77;;;0.47;;
24421;SDS011;12600;53.326;-6.298;2024-02-23T03:31:26;1.25;;;0.43;;
24421;SDS011;12600;53.326;-6.298;2024-02-23T03:34:16;2.58;;;0.65;;
24421;SDS011;12600;53.326;-6.298;2024-02-23T03:37:05;1.30;;;0.50;;
24421;SDS011;12600;53.326;-6.298;2024-02-23T03:39:55;4.10;;;0.80;;
24421;SDS011;12600;53.326;-6.298;2024-02-23T03:42:44;0.82;;;0.50;;
24421;SDS011;12600;53.326;-6.298;2024-02-23T03:45:35;1.60;;;0.55;;
24421;SDS011;12600;53.326;-6.298;2024-02-23T03:48:25;2.63;;;0.60;;
24421;SDS011;12600;53.326;-6.298;2024-02-23T03:51:14;4.20;;;0.77;;
24421;SDS011;12600;53.326;-6.298;2024-02-23T03:54:03;2.42;;;0.90;;
24421;SDS011;12600;53.326;-6.298;2024-02-23T03:56:53;2.15;;;0.82;;
24421;SDS011;12600;53.326;-6.298;2024-02-23T03:59:50;2.10;;;0.60;;
24421;SDS011;12600;53.326;-6.298;2024-02-23T04:02:42;2.63;;;0.65;;
24421;SDS011;12600;53.326;-6.298;2024-02-23T04:05:32;2.75;;;0.60;;
24421;SDS011;12600;53.326;-6.298;2024-02-23T04:08:21;1.73;;;0.60;;
24421;SDS011;12600;53.326;-6.298;2024-02-23T04:11:12;3.50;;;0.60;;
24421;SDS011;12600;53.326;-6.298;2024-02-23T04:14:02;2.88;;;0.68;;
24421;SDS011;12600;53.326;-6.298;2024-02-23T04:16:52;6.22;;;0.73;;
24421;SDS011;12600;53.326;-6.298;2024-02-23T04:19:43;6.68;;;0.60;;
24421;SDS011;12600;53.326;-6.298;2024-02-23T04:22:33;1.73;;;1.20;;
24421;SDS011;12600;53.326;-6.298;2024-02-23T04:25:22;5.95;;;0.70;;
24421;SDS011;12600;53.326;-6.298;2024-02-23T04:28:13;3.90;;;0.70;;
24421;SDS011;12600;53.326;-6.298;2024-02-23T04:31:02;1.02;;;0.60;;
24421;SDS011;12600;53.326;-6.298;2024-02-23T04:33:52;0.82;;;0.43;;
24421;SDS011;12600;53.326;-6.298;2024-02-23T04:36:43;1.52;;;0.40;;
24421;SDS011;12600;53.326;-6.298;2024-02-23T04:39:32;4.32;;;0.60;;
24421;SDS011;12600;53.326;-6.298;2024-02-23T04:42:22;1.50;;;0.43;;
24421;SDS011;12600;53.326;-6.298;2024-02-23T04:45:11;1.25;;;0.40;;
24421;SDS011;12600;53.326;-6.298;2024-02-23T04:48:01;1.40;;;0.63;;
24421;SDS011;12600;53.326;-6.298;2024-02-23T04:50:51;1.05;;;0.43;;
24421;SDS011;12600;53.326;-6.298;2024-02-23T04:53:42;0.45;;;0.40;;
24421;SDS011;12600;53.326;-6.298;2024-02-23T04:56:31;1.65;;;0.60;;
24421;SDS011;12600;53.326;-6.298;2024-02-23T04:59:21;2.38;;;0.75;;
24421;SDS011;12600;53.326;-6.298;2024-02-23T05:02:11;2.15;;;0.50;;
24421;SDS011;12600;53.326;-6.298;2024-02-23T05:05:02;1.13;;;0.43;;
24421;SDS011;12600;53.326;-6.298;2024-02-23T05:07:52;2.53;;;0.30;;
24421;SDS011;12600;53.326;-6.298;2024-02-23T05:10:43;1.67;;;0.55;;
24421;SDS011;12600;53.326;-6.298;2024-02-23T05:13:32;1.00;;;0.60;;
24421;SDS011;12600;53.326;-6.298;2024-02-23T05:16:22;1.95;;;0.70;;
24421;SDS011;12600;53.326;-6.298;2024-02-23T05:19:11;4.20;;;1.42;;
24421;SDS011;12600;53.326;-6.298;2024-02-23T05:22:01;4.85;;;0.65;;
24421;SDS011;12600;53.326;-6.298;2024-02-23T05:24:51;2.00;;;0.50;;
24421;SDS011;12600;53.326;-6.298;2024-02-23T05:27:42;3.75;;;0.65;;
24421;SDS011;12600;53.326;-6.298;2024-02-23T05:30:31;2.05;;;0.40;;
24421;SDS011;12600;53.326;-6.298;2024-02-23T05:33:21;0.80;;;0.30;;
24421;SDS011;12600;53.326;-6.298;2024-02-23T05:36:11;3.20;;;0.82;;
24421;SDS011;12600;53.326;-6.298;2024-02-23T05:39:01;1.20;;;0.40;;
24421;SDS011;12600;53.326;-6.298;2024-02-23T05:41:50;0.75;;;0.35;;
24421;SDS011;12600;53.326;-6.298;2024-02-23T05:44:44;0.40;;;0.30;;
24421;SDS011;12600;53.326;-6.298;2024-02-23T05:47:35;2.67;;;0.60;;
24421;SDS011;12600;53.326;-6.298;2024-02-23T05:50:27;3.93;;;0.57;;
24421;SDS011;12600;53.326;-6.298;2024-02-23T05:53:17;1.40;;;0.40;;
24421;SDS011;12600;53.326;-6.298;2024-02-23T05:56:06;3.55;;;0.68;;
24421;SDS011;12600;53.326;-6.298;2024-02-23T05:58:57;2.20;;;0.50;;
24421;SDS011;12600;53.326;-6.298;2024-02-23T06:01:48;5.95;;;1.05;;
24421;SDS011;12600;53.326;-6.298;2024-02-23T06:04:39;0.68;;;0.50;;
24421;SDS011;12600;53.326;-6.298;2024-02-23T06:07:29;3.83;;;0.60;;
24421;SDS011;12600;53.326;-6.298;2024-02-23T06:10:19;2.35;;;0.50;;
24421;SDS011;12600;53.326;-6.298;2024-02-23T06:13:08;2.30;;;0.60;;
24421;SDS011;12600;53.326;-6.298;2024-02-23T06:15:58;0.80;;;0.70;;
24421;SDS011;12600;53.326;-6.298;2024-02-23T06:18:49;3.90;;;0.60;;
24421;SDS011;12600;53.326;-6.298;2024-02-23T06:21:39;2.47;;;0.65;;
24421;SDS011;12600;53.326;-6.298;2024-02-23T06:24:28;5.78;;;0.70;;
24421;SDS011;12600;53.326;-6.298;2024-02-23T06:27:18;8.02;;;0.80;;
24421;SDS011;12600;53.326;-6.298;2024-02-23T06:30:09;3.08;;;0.70;;
24421;SDS011;12600;53.326;-6.298;2024-02-23T06:32:59;3.55;;;0.93;;
24421;SDS011;12600;53.326;-6.298;2024-02-23T06:35:50;2.30;;;0.47;;
24421;SDS011;12600;53.326;-6.298;2024-02-23T06:38:40;4.40;;;0.90;;
24421;SDS011;12600;53.326;-6.298;2024-02-23T06:41:30;2.17;;;0.60;;
24421;SDS011;12600;53.326;-6.298;2024-02-23T06:44:19;2.58;;;0.77;;
24421;SDS011;12600;53.326;-6.298;2024-02-23T06:47:09;3.42;;;0.90;;
24421;SDS011;12600;53.326;-6.298;2024-02-23T06:49:59;7.07;;;0.93;;
24421;SDS011;12600;53.326;-6.298;2024-02-23T06:52:51;2.42;;;0.50;;
24421;SDS011;12600;53.326;-6.298;2024-02-23T06:55:41;2.55;;;0.80;;
24421;SDS011;12600;53.326;-6.298;2024-02-23T06:58:31;2.58;;;0.45;;
24421;SDS011;12600;53.326;-6.298;2024-02-23T07:01:20;4.03;;;1.05;;
24421;SDS011;12600;53.326;-6.298;2024-02-23T07:04:10;5.65;;;1.00;;
24421;SDS011;12600;53.326;-6.298;2024-02-23T07:06:59;3.85;;;1.55;;
24421;SDS011;12600;53.326;-6.298;2024-02-23T07:09:56;7.78;;;0.90;;
24421;SDS011;12600;53.326;-6.298;2024-02-23T07:12:45;5.97;;;1.10;;
24421;SDS011;12600;53.326;-6.298;2024-02-23T07:15:35;6.72;;;1.55;;
24421;SDS011;12600;53.326;-6.298;2024-02-23T07:18:25;5.43;;;1.30;;
24421;SDS011;12600;53.326;-6.298;2024-02-23T07:21:17;3.75;;;0.57;;
24421;SDS011;12600;53.326;-6.298;2024-02-23T07:24:06;5.53;;;0.80;;
24421;SDS011;12600;53.326;-6.298;2024-02-23T07:26:58;6.03;;;0.90;;
24421;SDS011;12600;53.326;-6.298;2024-02-23T07:29:47;3.10;;;0.80;;
24421;SDS011;12600;53.326;-6.298;2024-02-23T07:32:37;5.43;;;0.65;;
24421;SDS011;12600;53.326;-6.298;2024-02-23T07:35:27;2.50;;;0.77;;
24421;SDS011;12600;53.326;-6.298;2024-02-23T07:38:16;7.35;;;0.95;;
24421;SDS011;12600;53.326;-6.298;2024-02-23T07:41:07;4.88;;;1.30;;
24421;SDS011;12600;53.326;-6.298;2024-02-23T07:43:58;2.83;;;1.00;;
24421;SDS011;12600;53.326;-6.298;2024-02-23T07:46:47;6.40;;;1.30;;
24421;SDS011;12600;53.326;-6.298;2024-02-23T07:49:39;3.50;;;1.20;;
24421;SDS011;12600;53.326;-6.298;2024-02-23T07:52:29;5.78;;;1.00;;
24421;SDS011;12600;53.326;-6.298;2024-02-23T07:55:18;4.97;;;0.90;;
24421;SDS011;12600;53.326;-6.298;2024-02-23T07:58:08;10.52;;;1.42;;
24421;SDS011;12600;53.326;-6.298;2024-02-23T08:00:58;6.65;;;0.80;;
24421;SDS011;12600;53.326;-6.298;2024-02-23T08:03:48;4.50;;;1.20;;
24421;SDS011;12600;53.326;-6.298;2024-02-23T08:06:38;4.60;;;0.95;;
24421;SDS011;12600;53.326;-6.298;2024-02-23T08:09:27;3.78;;;1.05;;
24421;SDS011;12600;53.326;-6.298;2024-02-23T08:12:17;2.30;;;0.73;;
24421;SDS011;12600;53.326;-6.298;2024-02-23T08:15:07;2.92;;;0.90;;
24421;SDS011;12600;53.326;-6.298;2024-02-23T08:17:58;4.22;;;1.25;;
24421;SDS011;12600;53.326;-6.298;2024-02-23T08:20:48;3.10;;;1.08;;
24421;SDS011;12600;53.326;-6.298;2024-02-23T08:23:37;5.50;;;1.20;;
24421;SDS011;12600;53.326;-6.298;2024-02-23T08:26:27;6.18;;;0.90;;
24421;SDS011;12600;53.326;-6.298;2024-02-23T08:29:16;6.78;;;1.35;;
24421;SDS011;12600;53.326;-6.298;2024-02-23T08:32:06;2.50;;;1.00;;
24421;SDS011;12600;53.326;-6.298;2024-02-23T08:34:58;2.35;;;0.80;;
24421;SDS011;12600;53.326;-6.298;2024-02-23T08:37:47;3.67;;;1.10;;
24421;SDS011;12600;53.326;-6.298;2024-02-23T08:40:37;2.70;;;0.85;;
24421;SDS011;12600;53.326;-6.298;2024-02-23T08:43:26;2.83;;;0.90;;
24421;SDS011;12600;53.326;-6.298;2024-02-23T08:46:16;3.17;;;1.13;;
24421;SDS011;12600;53.326;-6.298;2024-02-23T08:49:06;5.97;;;1.52;;
24421;SDS011;12600;53.326;-6.298;2024-02-23T08:51:57;3.00;;;0.93;;
24421;SDS011;12600;53.326;-6.298;2024-02-23T08:54:47;2.47;;;1.13;;
24421;SDS011;12600;53.326;-6.298;2024-02-23T08:57:36;2.75;;;0.98;;
24421;SDS011;12600;53.326;-6.298;2024-02-23T09:00:25;7.32;;;1.77;;
24421;SDS011;12600;53.326;-6.298;2024-02-23T09:03:15;5.97;;;1.30;;
24421;SDS011;12600;53.326;-6.298;2024-02-23T09:06:05;3.03;;;0.90;;
24421;SDS011;12600;53.326;-6.298;2024-02-23T09:08:57;4.95;;;1.13;;
24421;SDS011;12600;53.326;-6.298;2024-02-23T09:11:46;2.10;;;0.90;;
24421;SDS011;12600;53.326;-6.298;2024-02-23T09:14:36;3.90;;;1.02;;
24421;SDS011;12600;53.326;-6.298;2024-02-23T09:17:26;3.88;;;0.82;;
24421;SDS011;12600;53.326;-6.298;2024-02-23T09:20:16;3.45;;;1.05;;
24421;SDS011;12600;53.326;-6.298;2024-02-23T09:23:06;5.00;;;0.82;;
24421;SDS011;12600;53.326;-6.298;2024-02-23T09:25:58;3.83;;;1.02;;
24421;SDS011;12600;53.326;-6.298;2024-02-23T09:28:48;2.65;;;1.02;;
24421;SDS011;12600;53.326;-6.298;2024-02-23T09:31:38;1.95;;;0.90;;
24421;SDS011;12600;53.326;-6.298;2024-02-23T09:34:27;4.80;;;1.10;;
24421;SDS011;12600;53.326;-6.298;2024-02-23T09:37:17;5.05;;;1.52;;
24421;SDS011;12600;53.326;-6.298;2024-02-23T09:40:08;4.93;;;1.20;;
24421;SDS011;12600;53.326;-6.298;2024-02-23T09:43:00;5.32;;;1.40;;
24421;SDS011;12600;53.326;-6.298;2024-02-23T09:45:50;3.00;;;1.10;;
24421;SDS011;12600;53.326;-6.298;2024-02-23T09:48:40;4.10;;;2.00;;
24421;SDS011;12600;53.326;-6.298;2024-02-23T09:51:30;5.97;;;1.80;;
24421;SDS011;12600;53.326;-6.298;2024-02-23T09:54:22;4.28;;;1.45;;
24421;SDS011;12600;53.326;-6.298;2024-02-23T09:57:11;6.75;;;2.25;;
24421;SDS011;12600;53.326;-6.298;2024-02-23T10:00:04;5.70;;;2.00;;
24421;SDS011;12600;53.326;-6.298;2024-02-23T10:02:58;4.13;;;2.03;;
24421;SDS011;12600;53.326;-6.298;2024-02-23T10:05:47;5.65;;;1.80;;
24421;SDS011;12600;53.326;-6.298;2024-02-23T10:08:37;1.42;;;1.05;;
24421;SDS011;12600;53.326;-6.298;2024-02-23T10:11:26;4.70;;;1.52;;
24421;SDS011;12600;53.326;-6.298;2024-02-23T10:14:16;4.90;;;2.15;;
24421;SDS011;12600;53.326;-6.298;2024-02-23T10:17:07;6.78;;;2.08;;
24421;SDS011;12600;53.326;-6.298;2024-02-23T10:19:56;1.73;;;1.08;;
24421;SDS011;12600;53.326;-6.298;2024-02-23T10:25:41;7.88;;;2.30;;
24421;SDS011;12600;53.326;-6.298;2024-02-23T10:28:30;5.97;;;2.00;;
24421;SDS011;12600;53.326;-6.298;2024-02-23T10:31:19;3.97;;;1.83;;
24421;SDS011;12600;53.326;-6.298;2024-02-23T10:34:12;6.97;;;1.60;;
24421;SDS011;12600;53.326;-6.298;2024-02-23T10:37:02;6.15;;;1.58;;
24421;SDS011;12600;53.326;-6.298;2024-02-23T10:39:57;3.13;;;1.05;;
24421;SDS011;12600;53.326;-6.298;2024-02-23T10:42:50;2.70;;;1.63;;
24421;SDS011;12600;53.326;-6.298;2024-02-23T10:45:44;5.25;;;2.00;;
24421;SDS011;12600;53.326;-6.298;2024-02-23T10:48:35;8.27;;;2.38;;
24421;SDS011;12600;53.326;-6.298;2024-02-23T10:51:27;2.75;;;1.17;;
24421;SDS011;12600;53.326;-6.298;2024-02-23T10:54:18;9.05;;;2.15;;
24421;SDS011;12600;53.326;-6.298;2024-02-23T10:57:09;7.30;;;2.50;;
24421;SDS011;12600;53.326;-6.298;2024-02-23T11:00:01;7.10;;;1.90;;
24421;SDS011;12600;53.326;-6.298;2024-02-23T11:02:53;6.32;;;1.50;;
24421;SDS011;12600;53.326;-6.298;2024-02-23T11:05:47;5.38;;;1.75;;
24421;SDS011;12600;53.326;-6.298;2024-02-23T11:08:38;5.15;;;1.83;;
24421;SDS011;12600;53.326;-6.298;2024-02-23T11:11:28;6.82;;;1.70;;
24421;SDS011;12600;53.326;-6.298;2024-02-23T11:14:29;6.38;;;1.80;;
24421;SDS011;12600;53.326;-6.298;2024-02-23T11:17:20;6.10;;;1.73;;
24421;SDS011;12600;53.326;-6.298;2024-02-23T11:20:14;6.95;;;1.58;;
24421;SDS011;12600;53.326;-6.298;2024-02-23T11:23:16;6.78;;;2.03;;
24421;SDS011;12600;53.326;-6.298;2024-02-23T11:26:07;5.93;;;2.13;;
24421;SDS011;12600;53.326;-6.298;2024-02-23T11:28:59;5.75;;;1.80;;
24421;SDS011;12600;53.326;-6.298;2024-02-23T11:31:58;5.28;;;1.55;;
24421;SDS011;12600;53.326;-6.298;2024-02-23T11:34:54;7.10;;;1.70;;
24421;SDS011;12600;53.326;-6.298;2024-02-23T11:37:45;2.40;;;1.17;;
24421;SDS011;12600;53.326;-6.298;2024-02-23T11:40:36;5.93;;;1.00;;
24421;SDS011;12600;53.326;-6.298;2024-02-23T11:43:27;6.63;;;1.85;;
24421;SDS011;12600;53.326;-6.298;2024-02-23T11:46:17;4.30;;;1.92;;
24421;SDS011;12600;53.326;-6.298;2024-02-23T11:49:06;10.05;;;3.80;;
24421;SDS011;12600;53.326;-6.298;2024-02-23T11:51:56;11.23;;;3.97;;
24421;SDS011;12600;53.326;-6.298;2024-02-23T11:54:45;12.52;;;2.55;;
24421;SDS011;12600;53.326;-6.298;2024-02-23T11:57:35;4.40;;;2.17;;
24421;SDS011;12600;53.326;-6.298;2024-02-23T12:00:35;8.30;;;1.85;;
24421;SDS011;12600;53.326;-6.298;2024-02-23T12:03:25;7.68;;;1.90;;
24421;SDS011;12600;53.326;-6.298;2024-02-23T12:06:15;5.68;;;1.80;;
24421;SDS011;12600;53.326;-6.298;2024-02-23T12:09:05;1.85;;;1.20;;
24421;SDS011;12600;53.326;-6.298;2024-02-23T12:11:54;7.03;;;1.90;;
24421;SDS011;12600;53.326;-6.298;2024-02-23T12:14:45;3.53;;;1.05;;
24421;SDS011;12600;53.326;-6.298;2024-02-23T12:17:38;5.38;;;2.45;;
24421;SDS011;12600;53.326;-6.298;2024-02-23T12:20:36;12.73;;;2.33;;
24421;SDS011;12600;53.326;-6.298;2024-02-23T12:23:26;9.93;;;2.78;;
24421;SDS011;12600;53.326;-6.298;2024-02-23T12:26:25;5.80;;;2.25;;
24421;SDS011;12600;53.326;-6.298;2024-02-23T12:29:15;5.88;;;2.13;;
24421;SDS011;12600;53.326;-6.298;2024-02-23T12:32:05;8.25;;;2.55;;
24421;SDS011;12600;53.326;-6.298;2024-02-23T12:34:57;11.80;;;2.72;;
24421;SDS011;12600;53.326;-6.298;2024-02-23T12:37:47;8.60;;;2.40;;
24421;SDS011;12600;53.326;-6.298;2024-02-23T12:40:38;6.78;;;2.83;;
24421;SDS011;12600;53.326;-6.298;2024-02-23T12:43:28;6.78;;;2.83;;
24421;SDS011;12600;53.326;-6.298;2024-02-23T12:46:18;5.30;;;1.92;;
24421;SDS011;12600;53.326;-6.298;2024-02-23T12:49:07;5.15;;;1.90;;
24421;SDS011;12600;53.326;-6.298;2024-02-23T12:51:59;6.80;;;1.52;;
24421;SDS011;12600;53.326;-6.298;2024-02-23T12:54:48;7.55;;;1.92;;
24421;SDS011;12600;53.326;-6.298;2024-02-23T12:57:38;7.13;;;1.75;;
24421;SDS011;12600;53.326;-6.298;2024-02-23T13:00:28;7.20;;;3.38;;
24421;SDS011;12600;53.326;-6.298;2024-02-23T13:03:18;8.13;;;2.47;;
24421;SDS011;12600;53.326;-6.298;2024-02-23T13:06:07;5.35;;;2.15;;
24421;SDS011;12600;53.326;-6.298;2024-02-23T13:08:58;6.47;;;1.90;;
24421;SDS011;12600;53.326;-6.298;2024-02-23T13:11:50;5.05;;;1.55;;
24421;SDS011;12600;53.326;-6.298;2024-02-23T13:14:40;3.28;;;1.10;;
24421;SDS011;12600;53.326;-6.298;2024-02-23T13:17:30;6.03;;;1.55;;
24421;SDS011;12600;53.326;-6.298;2024-02-23T13:20:19;6.57;;;1.80;;
24421;SDS011;12600;53.326;-6.298;2024-02-23T13:23:10;4.40;;;1.50;;
24421;SDS011;12600;53.326;-6.298;2024-02-23T13:26:04;6.72;;;1.50;;
24421;SDS011;12600;53.326;-6.298;2024-02-23T13:28:57;4.38;;;1.55;;
24421;SDS011;12600;53.326;-6.298;2024-02-23T13:31:46;8.95;;;2.13;;
24421;SDS011;12600;53.326;-6.298;2024-02-23T13:34:35;3.15;;;1.40;;
24421;SDS011;12600;53.326;-6.298;2024-02-23T13:37:25;2.92;;;1.05;;
24421;SDS011;12600;53.326;-6.298;2024-02-23T13:40:15;4.05;;;1.40;;
24421;SDS011;12600;53.326;-6.298;2024-02-23T13:43:06;4.90;;;1.50;;
24421;SDS011;12600;53.326;-6.298;2024-02-23T13:45:56;7.38;;;1.35;;
24421;SDS011;12600;53.326;-6.298;2024-02-23T13:48:45;9.68;;;2.08;;
24421;SDS011;12600;53.326;-6.298;2024-02-23T13:51:38;10.73;;;2.40;;
24421;SDS011;12600;53.326;-6.298;2024-02-23T13:54:28;8.75;;;2.30;;
24421;SDS011;12600;53.326;-6.298;2024-02-23T13:57:17;5.97;;;1.67;;
24421;SDS011;12600;53.326;-6.298;2024-02-23T14:00:09;3.85;;;1.65;;
24421;SDS011;12600;53.326;-6.298;2024-02-23T14:03:00;6.65;;;1.85;;
24421;SDS011;12600;53.326;-6.298;2024-02-23T14:05:50;3.67;;;1.17;;
24421;SDS011;12600;53.326;-6.298;2024-02-23T14:08:40;5.35;;;1.15;;
24421;SDS011;12600;53.326;-6.298;2024-02-23T14:11:31;4.60;;;1.50;;
24421;SDS011;12600;53.326;-6.298;2024-02-23T14:14:21;6.47;;;1.50;;
24421;SDS011;12600;53.326;-6.298;2024-02-23T14:17:12;3.85;;;1.25;;
24421;SDS011;12600;53.326;-6.298;2024-02-23T14:20:02;6.22;;;1.10;;
24421;SDS011;12600;53.326;-6.298;2024-02-23T14:22:54;5.70;;;1.30;;
24421;SDS011;12600;53.326;-6.298;2024-02-23T14:25:43;4.47;;;1.17;;
24421;SDS011;12600;53.326;-6.298;2024-02-23T14:28:33;4.72;;;1.15;;
24421;SDS011;12600;53.326;-6.298;2024-02-23T14:31:22;1.77;;;0.70;;
24421;SDS011;12600;53.326;-6.298;2024-02-23T14:34:13;4.60;;;1.45;;
24421;SDS011;12600;53.326;-6.298;2024-02-23T14:37:03;5.45;;;0.90;;
24421;SDS011;12600;53.326;-6.298;2024-02-23T14:39:54;4.28;;;1.35;;
24421;SDS011;12600;53.326;-6.298;2024-02-23T14:42:43;6.55;;;2.00;;
24421;SDS011;12600;53.326;-6.298;2024-02-23T14:45:32;5.07;;;1.75;;
24421;SDS011;12600;53.326;-6.298;2024-02-23T14:48:22;4.95;;;2.20;;
24421;SDS011;12600;53.326;-6.298;2024-02-23T14:51:13;7.93;;;2.13;;
24421;SDS011;12600;53.326;-6.298;2024-02-23T14:54:03;4.50;;;2.10;;
24421;SDS011;12600;53.326;-6.298;2024-02-23T14:56:53;3.08;;;1.15;;
24421;SDS011;12600;53.326;-6.298;2024-02-23T14:59:42;4.63;;;1.35;;
24421;SDS011;12600;53.326;-6.298;2024-02-23T15:02:34;4.45;;;1.67;;
24421;SDS011;12600;53.326;-6.298;2024-02-23T15:05:24;5.03;;;1.30;;
24421;SDS011;12600;53.326;-6.298;2024-02-23T15:08:15;4.47;;;1.25;;
24421;SDS011;12600;53.326;-6.298;2024-02-23T15:11:05;8.25;;;1.98;;
24421;SDS011;12600;53.326;-6.298;2024-02-23T15:13:54;6.93;;;1.70;;
24421;SDS011;12600;53.326;-6.298;2024-02-23T15:16:45;5.97;;;1.42;;
24421;SDS011;12600;53.326;-6.298;2024-02-23T15:19:34;4.45;;;1.20;;
24421;SDS011;12600;53.326;-6.298;2024-02-23T15:22:24;8.40;;;1.70;;
24421;SDS011;12600;53.326;-6.298;2024-02-23T15:25:15;7.03;;;2.05;;
24421;SDS011;12600;53.326;-6.298;2024-02-23T15:28:04;4.57;;;1.20;;
24421;SDS011;12600;53.326;-6.298;2024-02-23T15:30:54;6.15;;;1.50;;
24421;SDS011;12600;53.326;-6.298;2024-02-23T15:33:43;6.65;;;1.92;;
24421;SDS011;12600;53.326;-6.298;2024-02-23T15:36:33;6.78;;;1.90;;
24421;SDS011;12600;53.326;-6.298;2024-02-23T15:39:23;6.20;;;1.92;;
24421;SDS011;12600;53.326;-6.298;2024-02-23T15:42:14;7.57;;;2.10;;
24421;SDS011;12600;53.326;-6.298;2024-02-23T15:45:05;5.68;;;1.55;;
24421;SDS011;12600;53.326;-6.298;2024-02-23T15:47:55;5.05;;;2.20;;
24421;SDS011;12600;53.326;-6.298;2024-02-23T15:50:45;13.10;;;3.95;;
24421;SDS011;12600;53.326;-6.298;2024-02-23T15:53:54;10.68;;;4.45;;
24421;SDS011;12600;53.326;-6.298;2024-02-23T15:56:44;9.57;;;3.10;;
24421;SDS011;12600;53.326;-6.298;2024-02-23T15:59:35;4.50;;;1.98;;
24421;SDS011;12600;53.326;-6.298;2024-02-23T16:02:25;4.82;;;1.50;;
24421;SDS011;12600;53.326;-6.298;2024-02-23T16:05:17;7.03;;;2.55;;
24421;SDS011;12600;53.326;-6.298;2024-02-23T16:08:06;9.35;;;2.63;;
24421;SDS011;12600;53.326;-6.298;2024-02-23T16:10:58;2.92;;;1.38;;
24421;SDS011;12600;53.326;-6.298;2024-02-23T16:13:48;4.63;;;1.65;;
24421;SDS011;12600;53.326;-6.298;2024-02-23T16:16:41;8.50;;;2.40;;
24421;SDS011;12600;53.326;-6.298;2024-02-23T16:19:31;7.80;;;2.47;;
24421;SDS011;12600;53.326;-6.298;2024-02-23T16:22:20;10.90;;;4.03;;
24421;SDS011;12600;53.326;-6.298;2024-02-23T16:25:10;10.27;;;3.35;;
24421;SDS011;12600;53.326;-6.298;2024-02-23T16:28:00;11.75;;;2.95;;
24421;SDS011;12600;53.326;-6.298;2024-02-23T16:30:50;7.60;;;2.75;;
24421;SDS011;12600;53.326;-6.298;2024-02-23T16:33:41;9.48;;;3.00;;
24421;SDS011;12600;53.326;-6.298;2024-02-23T16:36:31;7.38;;;1.98;;
24421;SDS011;12600;53.326;-6.298;2024-02-23T16:39:20;6.63;;;2.20;;
24421;SDS011;12600;53.326;-6.298;2024-02-23T16:42:10;10.30;;;2.00;;
24421;SDS011;12600;53.326;-6.298;2024-02-23T16:44:59;4.80;;;1.20;;
24421;SDS011;12600;53.326;-6.298;2024-02-23T16:47:49;8.90;;;2.47;;
24421;SDS011;12600;53.326;-6.298;2024-02-23T16:50:41;9.50;;;3.45;;
24421;SDS011;12600;53.326;-6.298;2024-02-23T16:53:33;10.77;;;3.67;;